sensor_id;sensor_type;location;lat;lon;timestamp;P1;durP1;ratioP1;P2;durP2;ratioP2
69030;SDS011;56083;48.774;8.942;2023-05-29T00:02:09;16.00;;;7.35;;
69030;SDS011;56083;48.774;8.942;2023-05-29T00:04:34;12.88;;;6.82;;
69030;SDS011;56083;48.774;8.942;2023-05-29T00:07:00;16.23;;;6.75;;
69030;SDS011;56083;48.774;8.942;2023-05-29T00:09:26;19.90;;;7.35;;
69030;SDS011;56083;48.774;8.942;2023-05-29T00:11:53;14.88;;;7.65;;
69030;SDS011;56083;48.774;8.942;2023-05-29T00:14:19;13.63;;;6.78;;
69030;SDS011;56083;48.774;8.942;2023-05-29T00:16:45;12.20;;;6.30;;
69030;SDS011;56083;48.774;8.942;2023-05-29T00:19:15;16.40;;;7.25;;
69030;SDS011;56083;48.774;8.942;2023-05-29T00:21:47;19.65;;;7.13;;
69030;SDS011;56083;48.774;8.942;2023-05-29T00:24:16;16.23;;;7.78;;
69030;SDS011;56083;48.774;8.942;2023-05-29T00:26:42;15.63;;;7.38;;
69030;SDS011;56083;48.774;8.942;2023-05-29T00:29:08;16.27;;;7.22;;
69030;SDS011;56083;48.774;8.942;2023-05-29T00:31:34;16.98;;;7.18;;
69030;SDS011;56083;48.774;8.942;2023-05-29T00:34:01;14.77;;;7.03;;
69030;SDS011;56083;48.774;8.942;2023-05-29T00:36:27;16.15;;;7.13;;
69030;SDS011;56083;48.774;8.942;2023-05-29T00:38:54;15.55;;;7.07;;
69030;SDS011;56083;48.774;8.942;2023-05-29T00:41:20;16.60;;;7.85;;
69030;SDS011;56083;48.774;8.942;2023-05-29T00:43:46;16.63;;;7.82;;
69030;SDS011;56083;48.774;8.942;2023-05-29T00:46:12;13.73;;;7.53;;
69030;SDS011;56083;48.774;8.942;2023-05-29T00:48:38;16.25;;;7.65;;
69030;SDS011;56083;48.774;8.942;2023-05-29T00:51:06;19.50;;;8.07;;
69030;SDS011;56083;48.774;8.942;2023-05-29T00:53:33;14.20;;;7.68;;
69030;SDS011;56083;48.774;8.942;2023-05-29T00:55:59;17.30;;;7.72;;
69030;SDS011;56083;48.774;8.942;2023-05-29T00:58:26;20.13;;;7.68;;
69030;SDS011;56083;48.774;8.942;2023-05-29T01:00:52;20.80;;;7.90;;
69030;SDS011;56083;48.774;8.942;2023-05-29T01:03:18;17.63;;;7.53;;
69030;SDS011;56083;48.774;8.942;2023-05-29T01:05:47;15.50;;;7.22;;
69030;SDS011;56083;48.774;8.942;2023-05-29T01:08:13;15.85;;;7.88;;
69030;SDS011;56083;48.774;8.942;2023-05-29T01:10:39;14.45;;;7.45;;
69030;SDS011;56083;48.774;8.942;2023-05-29T01:13:22;15.82;;;7.07;;
69030;SDS011;56083;48.774;8.942;2023-05-29T01:19:00;14.88;;;7.43;;
69030;SDS011;56083;48.774;8.942;2023-05-29T01:27:08;15.02;;;7.53;;
69030;SDS011;56083;48.774;8.942;2023-05-29T01:29:35;16.48;;;8.07;;
69030;SDS011;56083;48.774;8.942;2023-05-29T01:32:04;17.27;;;8.48;;
69030;SDS011;56083;48.774;8.942;2023-05-29T01:34:30;14.55;;;8.20;;
69030;SDS011;56083;48.774;8.942;2023-05-29T01:36:56;19.85;;;7.78;;
69030;SDS011;56083;48.774;8.942;2023-05-29T01:39:22;21.73;;;8.63;;
69030;SDS011;56083;48.774;8.942;2023-05-29T01:41:49;16.63;;;7.93;;
69030;SDS011;56083;48.774;8.942;2023-05-29T01:44:16;16.52;;;8.30;;
69030;SDS011;56083;48.774;8.942;2023-05-29T01:46:43;18.02;;;8.40;;
69030;SDS011;56083;48.774;8.942;2023-05-29T01:49:10;17.38;;;8.80;;
69030;SDS011;56083;48.774;8.942;2023-05-29T01:51:38;18.73;;;8.27;;
69030;SDS011;56083;48.774;8.942;2023-05-29T01:54:05;17.92;;;8.25;;
69030;SDS011;56083;48.774;8.942;2023-05-29T01:56:32;16.95;;;7.50;;
69030;SDS011;56083;48.774;8.942;2023-05-29T01:58:58;19.83;;;8.68;;
69030;SDS011;56083;48.774;8.942;2023-05-29T02:01:25;18.55;;;8.02;;
69030;SDS011;56083;48.774;8.942;2023-05-29T02:03:51;17.00;;;8.90;;
69030;SDS011;56083;48.774;8.942;2023-05-29T02:06:17;22.00;;;8.23;;
69030;SDS011;56083;48.774;8.942;2023-05-29T02:08:43;18.15;;;8.40;;
69030;SDS011;56083;48.774;8.942;2023-05-29T02:11:09;18.65;;;8.45;;
69030;SDS011;56083;48.774;8.942;2023-05-29T02:13:35;19.05;;;8.02;;
69030;SDS011;56083;48.774;8.942;2023-05-29T02:16:00;18.15;;;7.95;;
69030;SDS011;56083;48.774;8.942;2023-05-29T02:18:26;17.45;;;8.38;;
69030;SDS011;56083;48.774;8.942;2023-05-29T02:20:52;17.95;;;8.30;;
69030;SDS011;56083;48.774;8.942;2023-05-29T02:23:17;19.23;;;8.60;;
69030;SDS011;56083;48.774;8.942;2023-05-29T02:25:44;16.63;;;7.72;;
69030;SDS011;56083;48.774;8.942;2023-05-29T02:28:11;16.08;;;8.35;;
69030;SDS011;56083;48.774;8.942;2023-05-29T02:30:36;14.85;;;8.35;;
69030;SDS011;56083;48.774;8.942;2023-05-29T02:33:02;18.23;;;8.40;;
69030;SDS011;56083;48.774;8.942;2023-05-29T02:35:28;20.38;;;8.88;;
69030;SDS011;56083;48.774;8.942;2023-05-29T02:37:53;14.65;;;7.97;;
69030;SDS011;56083;48.774;8.942;2023-05-29T02:40:19;16.80;;;8.15;;
69030;SDS011;56083;48.774;8.942;2023-05-29T02:42:46;16.33;;;8.20;;
69030;SDS011;56083;48.774;8.942;2023-05-29T02:45:12;21.92;;;8.82;;
69030;SDS011;56083;48.774;8.942;2023-05-29T02:47:38;17.52;;;8.32;;
69030;SDS011;56083;48.774;8.942;2023-05-29T02:50:04;17.83;;;8.70;;
69030;SDS011;56083;48.774;8.942;2023-05-29T02:52:31;15.95;;;8.30;;
69030;SDS011;56083;48.774;8.942;2023-05-29T02:54:56;16.90;;;9.23;;
69030;SDS011;56083;48.774;8.942;2023-05-29T02:57:23;17.33;;;8.18;;
69030;SDS011;56083;48.774;8.942;2023-05-29T02:59:49;18.83;;;8.25;;
69030;SDS011;56083;48.774;8.942;2023-05-29T03:02:16;14.18;;;8.40;;
69030;SDS011;56083;48.774;8.942;2023-05-29T03:04:42;16.55;;;8.55;;
69030;SDS011;56083;48.774;8.942;2023-05-29T03:07:09;16.30;;;8.27;;
69030;SDS011;56083;48.774;8.942;2023-05-29T03:09:34;18.70;;;9.02;;
69030;SDS011;56083;48.774;8.942;2023-05-29T03:12:00;21.92;;;9.13;;
69030;SDS011;56083;48.774;8.942;2023-05-29T03:14:26;19.40;;;8.82;;
69030;SDS011;56083;48.774;8.942;2023-05-29T03:16:52;18.17;;;8.88;;
69030;SDS011;56083;48.774;8.942;2023-05-29T03:19:18;17.77;;;9.27;;
69030;SDS011;56083;48.774;8.942;2023-05-29T03:21:44;22.67;;;9.35;;
69030;SDS011;56083;48.774;8.942;2023-05-29T03:24:10;17.27;;;8.70;;
69030;SDS011;56083;48.774;8.942;2023-05-29T03:26:38;18.30;;;8.30;;
69030;SDS011;56083;48.774;8.942;2023-05-29T03:29:04;14.73;;;8.05;;
69030;SDS011;56083;48.774;8.942;2023-05-29T03:31:30;17.33;;;8.88;;
69030;SDS011;56083;48.774;8.942;2023-05-29T03:33:56;12.57;;;7.72;;
69030;SDS011;56083;48.774;8.942;2023-05-29T03:36:22;16.15;;;7.80;;
69030;SDS011;56083;48.774;8.942;2023-05-29T03:38:47;17.45;;;8.38;;
69030;SDS011;56083;48.774;8.942;2023-05-29T03:41:14;17.40;;;8.13;;
69030;SDS011;56083;48.774;8.942;2023-05-29T03:43:39;15.60;;;8.23;;
69030;SDS011;56083;48.774;8.942;2023-05-29T03:46:05;18.92;;;8.88;;
69030;SDS011;56083;48.774;8.942;2023-05-29T03:48:31;19.23;;;9.05;;
69030;SDS011;56083;48.774;8.942;2023-05-29T03:50:56;19.83;;;8.82;;
69030;SDS011;56083;48.774;8.942;2023-05-29T03:53:22;19.25;;;8.40;;
69030;SDS011;56083;48.774;8.942;2023-05-29T03:55:47;19.25;;;8.98;;
69030;SDS011;56083;48.774;8.942;2023-05-29T03:58:13;15.98;;;8.07;;
69030;SDS011;56083;48.774;8.942;2023-05-29T04:00:39;19.02;;;8.50;;
69030;SDS011;56083;48.774;8.942;2023-05-29T04:03:05;16.60;;;8.80;;
69030;SDS011;56083;48.774;8.942;2023-05-29T04:05:31;20.33;;;8.13;;
69030;SDS011;56083;48.774;8.942;2023-05-29T04:07:56;19.52;;;8.80;;
69030;SDS011;56083;48.774;8.942;2023-05-29T04:10:22;18.20;;;8.82;;
69030;SDS011;56083;48.774;8.942;2023-05-29T04:12:49;18.27;;;8.77;;
69030;SDS011;56083;48.774;8.942;2023-05-29T04:15:14;20.80;;;9.20;;
69030;SDS011;56083;48.774;8.942;2023-05-29T04:17:40;21.33;;;9.25;;
69030;SDS011;56083;48.774;8.942;2023-05-29T04:20:06;18.30;;;9.05;;
69030;SDS011;56083;48.774;8.942;2023-05-29T04:22:36;21.40;;;9.82;;
69030;SDS011;56083;48.774;8.942;2023-05-29T04:25:03;17.10;;;8.80;;
69030;SDS011;56083;48.774;8.942;2023-05-29T04:27:32;15.82;;;8.60;;
69030;SDS011;56083;48.774;8.942;2023-05-29T04:30:02;18.47;;;8.13;;
69030;SDS011;56083;48.774;8.942;2023-05-29T04:32:31;15.57;;;8.20;;
69030;SDS011;56083;48.774;8.942;2023-05-29T04:34:58;17.27;;;8.45;;
69030;SDS011;56083;48.774;8.942;2023-05-29T04:37:27;14.52;;;7.68;;
69030;SDS011;56083;48.774;8.942;2023-05-29T04:39:56;15.52;;;8.43;;
69030;SDS011;56083;48.774;8.942;2023-05-29T04:42:22;15.35;;;8.20;;
69030;SDS011;56083;48.774;8.942;2023-05-29T04:44:50;15.38;;;8.05;;
69030;SDS011;56083;48.774;8.942;2023-05-29T04:47:17;11.77;;;7.40;;
69030;SDS011;56083;48.774;8.942;2023-05-29T04:49:44;16.23;;;8.10;;
69030;SDS011;56083;48.774;8.942;2023-05-29T04:52:13;19.70;;;8.48;;
69030;SDS011;56083;48.774;8.942;2023-05-29T04:54:42;13.48;;;7.20;;
69030;SDS011;56083;48.774;8.942;2023-05-29T04:57:08;14.40;;;7.82;;
69030;SDS011;56083;48.774;8.942;2023-05-29T04:59:33;21.33;;;7.97;;
69030;SDS011;56083;48.774;8.942;2023-05-29T05:02:00;17.95;;;7.65;;
69030;SDS011;56083;48.774;8.942;2023-05-29T05:04:26;15.40;;;8.10;;
69030;SDS011;56083;48.774;8.942;2023-05-29T05:06:51;15.65;;;8.00;;
69030;SDS011;56083;48.774;8.942;2023-05-29T05:09:17;14.68;;;7.47;;
69030;SDS011;56083;48.774;8.942;2023-05-29T05:11:43;15.82;;;7.70;;
69030;SDS011;56083;48.774;8.942;2023-05-29T05:14:08;17.58;;;7.60;;
69030;SDS011;56083;48.774;8.942;2023-05-29T05:16:34;19.52;;;7.63;;
69030;SDS011;56083;48.774;8.942;2023-05-29T05:19:00;13.40;;;6.95;;
69030;SDS011;56083;48.774;8.942;2023-05-29T05:21:25;13.90;;;7.00;;
69030;SDS011;56083;48.774;8.942;2023-05-29T05:23:51;14.05;;;6.65;;
69030;SDS011;56083;48.774;8.942;2023-05-29T05:26:16;13.05;;;6.90;;
69030;SDS011;56083;48.774;8.942;2023-05-29T05:28:42;20.70;;;7.07;;
69030;SDS011;56083;48.774;8.942;2023-05-29T05:31:08;11.32;;;5.95;;
69030;SDS011;56083;48.774;8.942;2023-05-29T05:33:34;12.43;;;6.28;;
69030;SDS011;56083;48.774;8.942;2023-05-29T05:35:59;13.52;;;6.55;;
69030;SDS011;56083;48.774;8.942;2023-05-29T05:38:25;13.38;;;6.60;;
69030;SDS011;56083;48.774;8.942;2023-05-29T05:40:51;11.75;;;5.90;;
69030;SDS011;56083;48.774;8.942;2023-05-29T05:43:16;12.63;;;6.22;;
69030;SDS011;56083;48.774;8.942;2023-05-29T05:45:42;16.60;;;6.43;;
69030;SDS011;56083;48.774;8.942;2023-05-29T05:48:08;15.85;;;6.63;;
69030;SDS011;56083;48.774;8.942;2023-05-29T05:50:34;14.98;;;5.90;;
69030;SDS011;56083;48.774;8.942;2023-05-29T05:53:00;11.90;;;5.95;;
69030;SDS011;56083;48.774;8.942;2023-05-29T05:55:25;16.35;;;5.65;;
69030;SDS011;56083;48.774;8.942;2023-05-29T05:57:53;9.85;;;5.60;;
69030;SDS011;56083;48.774;8.942;2023-05-29T06:00:18;19.50;;;6.40;;
69030;SDS011;56083;48.774;8.942;2023-05-29T06:02:44;9.27;;;5.28;;
69030;SDS011;56083;48.774;8.942;2023-05-29T06:05:10;11.13;;;5.45;;
69030;SDS011;56083;48.774;8.942;2023-05-29T06:07:36;14.40;;;5.57;;
69030;SDS011;56083;48.774;8.942;2023-05-29T06:10:03;11.43;;;5.20;;
69030;SDS011;56083;48.774;8.942;2023-05-29T06:12:29;9.82;;;5.30;;
69030;SDS011;56083;48.774;8.942;2023-05-29T06:14:55;12.85;;;5.25;;
69030;SDS011;56083;48.774;8.942;2023-05-29T06:17:20;11.60;;;5.05;;
69030;SDS011;56083;48.774;8.942;2023-05-29T06:19:47;14.18;;;5.47;;
69030;SDS011;56083;48.774;8.942;2023-05-29T06:22:14;12.32;;;5.25;;
69030;SDS011;56083;48.774;8.942;2023-05-29T06:24:40;10.73;;;4.85;;
69030;SDS011;56083;48.774;8.942;2023-05-29T06:27:06;13.75;;;4.80;;
69030;SDS011;56083;48.774;8.942;2023-05-29T06:29:32;9.98;;;4.97;;
69030;SDS011;56083;48.774;8.942;2023-05-29T06:31:58;9.65;;;4.97;;
69030;SDS011;56083;48.774;8.942;2023-05-29T06:34:24;9.60;;;5.13;;
69030;SDS011;56083;48.774;8.942;2023-05-29T06:36:50;9.77;;;5.03;;
69030;SDS011;56083;48.774;8.942;2023-05-29T06:39:15;13.15;;;4.90;;
69030;SDS011;56083;48.774;8.942;2023-05-29T06:41:42;12.75;;;4.90;;
69030;SDS011;56083;48.774;8.942;2023-05-29T06:44:08;11.27;;;5.15;;
69030;SDS011;56083;48.774;8.942;2023-05-29T06:46:34;9.50;;;4.10;;
69030;SDS011;56083;48.774;8.942;2023-05-29T06:48:59;9.43;;;5.00;;
69030;SDS011;56083;48.774;8.942;2023-05-29T06:51:25;10.55;;;4.60;;
69030;SDS011;56083;48.774;8.942;2023-05-29T06:53:51;10.93;;;5.15;;
69030;SDS011;56083;48.774;8.942;2023-05-29T06:56:16;9.95;;;4.65;;
69030;SDS011;56083;48.774;8.942;2023-05-29T06:58:42;9.70;;;4.40;;
69030;SDS011;56083;48.774;8.942;2023-05-29T07:01:07;12.95;;;4.55;;
69030;SDS011;56083;48.774;8.942;2023-05-29T07:03:33;10.48;;;4.05;;
69030;SDS011;56083;48.774;8.942;2023-05-29T07:05:59;13.02;;;4.43;;
69030;SDS011;56083;48.774;8.942;2023-05-29T07:08:24;11.77;;;4.63;;
69030;SDS011;56083;48.774;8.942;2023-05-29T07:10:50;8.95;;;4.60;;
69030;SDS011;56083;48.774;8.942;2023-05-29T07:13:16;10.50;;;4.35;;
69030;SDS011;56083;48.774;8.942;2023-05-29T07:15:43;11.38;;;5.03;;
69030;SDS011;56083;48.774;8.942;2023-05-29T07:18:09;13.48;;;4.40;;
69030;SDS011;56083;48.774;8.942;2023-05-29T07:20:35;10.68;;;4.35;;
69030;SDS011;56083;48.774;8.942;2023-05-29T07:23:01;8.50;;;4.10;;
69030;SDS011;56083;48.774;8.942;2023-05-29T07:25:27;11.23;;;4.32;;
69030;SDS011;56083;48.774;8.942;2023-05-29T07:27:53;10.02;;;4.20;;
69030;SDS011;56083;48.774;8.942;2023-05-29T07:30:18;8.10;;;4.15;;
69030;SDS011;56083;48.774;8.942;2023-05-29T07:32:44;7.40;;;4.18;;
69030;SDS011;56083;48.774;8.942;2023-05-29T07:35:10;8.48;;;3.78;;
69030;SDS011;56083;48.774;8.942;2023-05-29T07:37:36;11.60;;;4.60;;
69030;SDS011;56083;48.774;8.942;2023-05-29T07:40:02;7.53;;;3.85;;
69030;SDS011;56083;48.774;8.942;2023-05-29T07:42:31;10.65;;;3.95;;
69030;SDS011;56083;48.774;8.942;2023-05-29T07:44:57;7.55;;;4.07;;
69030;SDS011;56083;48.774;8.942;2023-05-29T07:47:24;8.57;;;4.07;;
69030;SDS011;56083;48.774;8.942;2023-05-29T07:49:49;10.93;;;4.38;;
69030;SDS011;56083;48.774;8.942;2023-05-29T07:52:15;13.30;;;4.13;;
69030;SDS011;56083;48.774;8.942;2023-05-29T07:54:41;8.52;;;4.28;;
69030;SDS011;56083;48.774;8.942;2023-05-29T07:57:06;10.18;;;3.75;;
69030;SDS011;56083;48.774;8.942;2023-05-29T07:59:35;6.90;;;4.13;;
69030;SDS011;56083;48.774;8.942;2023-05-29T08:02:01;8.68;;;4.32;;
69030;SDS011;56083;48.774;8.942;2023-05-29T08:04:28;9.10;;;4.32;;
69030;SDS011;56083;48.774;8.942;2023-05-29T08:06:54;10.32;;;3.60;;
69030;SDS011;56083;48.774;8.942;2023-05-29T08:09:20;8.70;;;4.00;;
69030;SDS011;56083;48.774;8.942;2023-05-29T08:11:45;9.43;;;4.25;;
69030;SDS011;56083;48.774;8.942;2023-05-29T08:14:11;9.75;;;4.55;;
69030;SDS011;56083;48.774;8.942;2023-05-29T08:16:38;9.18;;;4.43;;
69030;SDS011;56083;48.774;8.942;2023-05-29T08:19:03;8.15;;;4.28;;
69030;SDS011;56083;48.774;8.942;2023-05-29T08:21:29;11.73;;;4.35;;
69030;SDS011;56083;48.774;8.942;2023-05-29T08:23:56;11.32;;;4.70;;
69030;SDS011;56083;48.774;8.942;2023-05-29T08:26:23;9.27;;;4.22;;
69030;SDS011;56083;48.774;8.942;2023-05-29T08:28:49;7.07;;;4.10;;
69030;SDS011;56083;48.774;8.942;2023-05-29T08:31:15;9.02;;;4.15;;
69030;SDS011;56083;48.774;8.942;2023-05-29T08:33:41;8.88;;;4.25;;
69030;SDS011;56083;48.774;8.942;2023-05-29T08:36:07;7.95;;;3.97;;
69030;SDS011;56083;48.774;8.942;2023-05-29T08:38:33;10.18;;;4.05;;
69030;SDS011;56083;48.774;8.942;2023-05-29T08:40:59;9.75;;;4.40;;
69030;SDS011;56083;48.774;8.942;2023-05-29T08:43:30;11.75;;;4.30;;
69030;SDS011;56083;48.774;8.942;2023-05-29T08:45:58;8.90;;;4.20;;
69030;SDS011;56083;48.774;8.942;2023-05-29T08:48:26;9.73;;;4.40;;
69030;SDS011;56083;48.774;8.942;2023-05-29T08:50:54;12.82;;;4.20;;
69030;SDS011;56083;48.774;8.942;2023-05-29T08:53:21;7.55;;;4.47;;
69030;SDS011;56083;48.774;8.942;2023-05-29T08:55:47;8.80;;;4.05;;
69030;SDS011;56083;48.774;8.942;2023-05-29T08:58:16;8.48;;;3.95;;
69030;SDS011;56083;48.774;8.942;2023-05-29T09:00:43;8.15;;;4.15;;
69030;SDS011;56083;48.774;8.942;2023-05-29T09:03:10;5.45;;;3.97;;
69030;SDS011;56083;48.774;8.942;2023-05-29T09:05:36;6.45;;;3.92;;
69030;SDS011;56083;48.774;8.942;2023-05-29T09:08:05;7.43;;;4.60;;
69030;SDS011;56083;48.774;8.942;2023-05-29T09:10:32;11.40;;;4.13;;
69030;SDS011;56083;48.774;8.942;2023-05-29T09:12:58;10.65;;;4.20;;
69030;SDS011;56083;48.774;8.942;2023-05-29T09:15:24;9.15;;;4.65;;
69030;SDS011;56083;48.774;8.942;2023-05-29T09:17:59;7.18;;;4.10;;
69030;SDS011;56083;48.774;8.942;2023-05-29T09:20:25;8.55;;;4.70;;
69030;SDS011;56083;48.774;8.942;2023-05-29T09:23:02;6.90;;;4.32;;
69030;SDS011;56083;48.774;8.942;2023-05-29T09:25:31;10.50;;;4.07;;
69030;SDS011;56083;48.774;8.942;2023-05-29T09:27:58;8.93;;;4.38;;
69030;SDS011;56083;48.774;8.942;2023-05-29T09:30:33;10.25;;;4.75;;
69030;SDS011;56083;48.774;8.942;2023-05-29T09:33:03;9.45;;;4.22;;
69030;SDS011;56083;48.774;8.942;2023-05-29T09:35:34;7.55;;;4.35;;
69030;SDS011;56083;48.774;8.942;2023-05-29T09:38:06;7.75;;;4.30;;
69030;SDS011;56083;48.774;8.942;2023-05-29T09:40:33;11.30;;;4.32;;
69030;SDS011;56083;48.774;8.942;2023-05-29T09:43:09;7.30;;;4.25;;
69030;SDS011;56083;48.774;8.942;2023-05-29T09:45:45;11.85;;;4.78;;
69030;SDS011;56083;48.774;8.942;2023-05-29T09:48:23;8.98;;;4.18;;
69030;SDS011;56083;48.774;8.942;2023-05-29T09:50:49;8.63;;;4.13;;
69030;SDS011;56083;48.774;8.942;2023-05-29T09:53:18;10.73;;;4.38;;
69030;SDS011;56083;48.774;8.942;2023-05-29T09:55:46;13.50;;;4.10;;
69030;SDS011;56083;48.774;8.942;2023-05-29T09:58:13;8.75;;;4.25;;
69030;SDS011;56083;48.774;8.942;2023-05-29T10:00:42;10.48;;;4.05;;
69030;SDS011;56083;48.774;8.942;2023-05-29T10:03:08;17.55;;;4.18;;
69030;SDS011;56083;48.774;8.942;2023-05-29T10:05:36;8.18;;;4.32;;
69030;SDS011;56083;48.774;8.942;2023-05-29T10:08:02;6.90;;;3.85;;
69030;SDS011;56083;48.774;8.942;2023-05-29T10:10:30;7.95;;;4.22;;
69030;SDS011;56083;48.774;8.942;2023-05-29T10:12:57;6.10;;;3.85;;
69030;SDS011;56083;48.774;8.942;2023-05-29T10:15:24;8.10;;;3.92;;
69030;SDS011;56083;48.774;8.942;2023-05-29T10:18:05;9.77;;;3.97;;
69030;SDS011;56083;48.774;8.942;2023-05-29T10:20:36;15.35;;;4.03;;
69030;SDS011;56083;48.774;8.942;2023-05-29T10:23:03;9.10;;;3.78;;
69030;SDS011;56083;48.774;8.942;2023-05-29T10:25:29;7.80;;;3.72;;
69030;SDS011;56083;48.774;8.942;2023-05-29T10:27:57;8.90;;;4.15;;
69030;SDS011;56083;48.774;8.942;2023-05-29T10:35:48;7.78;;;3.92;;
69030;SDS011;56083;48.774;8.942;2023-05-29T10:38:34;11.55;;;3.90;;
69030;SDS011;56083;48.774;8.942;2023-05-29T10:43:53;8.07;;;3.80;;
69030;SDS011;56083;48.774;8.942;2023-05-29T10:46:18;10.43;;;4.15;;
69030;SDS011;56083;48.774;8.942;2023-05-29T10:48:44;5.93;;;3.70;;
69030;SDS011;56083;48.774;8.942;2023-05-29T10:51:43;7.78;;;3.47;;
69030;SDS011;56083;48.774;8.942;2023-05-29T10:54:05;8.75;;;3.75;;
69030;SDS011;56083;48.774;8.942;2023-05-29T10:56:32;7.43;;;3.97;;
69030;SDS011;56083;48.774;8.942;2023-05-29T10:58:58;8.43;;;4.20;;
69030;SDS011;56083;48.774;8.942;2023-05-29T11:01:26;7.50;;;4.30;;
69030;SDS011;56083;48.774;8.942;2023-05-29T11:06:40;8.23;;;4.05;;
69030;SDS011;56083;48.774;8.942;2023-05-29T11:09:25;8.25;;;4.20;;
69030;SDS011;56083;48.774;8.942;2023-05-29T11:14:45;7.10;;;3.47;;
69030;SDS011;56083;48.774;8.942;2023-05-29T11:25:13;6.30;;;3.55;;
69030;SDS011;56083;48.774;8.942;2023-05-29T11:27:40;8.85;;;3.55;;
69030;SDS011;56083;48.774;8.942;2023-05-29T11:30:07;6.43;;;3.55;;
69030;SDS011;56083;48.774;8.942;2023-05-29T11:32:33;6.93;;;3.50;;
69030;SDS011;56083;48.774;8.942;2023-05-29T11:35:02;8.60;;;3.72;;
69030;SDS011;56083;48.774;8.942;2023-05-29T11:37:37;8.38;;;3.50;;
69030;SDS011;56083;48.774;8.942;2023-05-29T11:40:04;9.18;;;3.75;;
69030;SDS011;56083;48.774;8.942;2023-05-29T11:42:42;7.22;;;3.13;;
69030;SDS011;56083;48.774;8.942;2023-05-29T11:47:56;9.20;;;3.03;;
69030;SDS011;56083;48.774;8.942;2023-05-29T11:50:23;9.65;;;3.47;;
69030;SDS011;56083;48.774;8.942;2023-05-29T11:52:50;4.80;;;3.40;;
69030;SDS011;56083;48.774;8.942;2023-05-29T11:55:19;9.38;;;3.40;;
69030;SDS011;56083;48.774;8.942;2023-05-29T11:57:46;7.20;;;3.03;;
69030;SDS011;56083;48.774;8.942;2023-05-29T12:00:15;7.57;;;3.45;;
69030;SDS011;56083;48.774;8.942;2023-05-29T12:02:42;8.35;;;3.35;;
69030;SDS011;56083;48.774;8.942;2023-05-29T12:05:09;8.40;;;3.38;;
69030;SDS011;56083;48.774;8.942;2023-05-29T12:07:38;7.28;;;3.22;;
69030;SDS011;56083;48.774;8.942;2023-05-29T12:10:13;6.40;;;3.60;;
69030;SDS011;56083;48.774;8.942;2023-05-29T12:12:40;6.43;;;3.58;;
69030;SDS011;56083;48.774;8.942;2023-05-29T12:15:06;6.05;;;3.35;;
69030;SDS011;56083;48.774;8.942;2023-05-29T12:17:33;7.75;;;3.28;;
69030;SDS011;56083;48.774;8.942;2023-05-29T12:19:59;7.28;;;3.53;;
69030;SDS011;56083;48.774;8.942;2023-05-29T12:22:35;8.13;;;3.25;;
69030;SDS011;56083;48.774;8.942;2023-05-29T12:25:05;5.85;;;3.70;;
69030;SDS011;56083;48.774;8.942;2023-05-29T12:27:32;7.32;;;3.33;;
69030;SDS011;56083;48.774;8.942;2023-05-29T12:30:07;7.25;;;2.97;;
69030;SDS011;56083;48.774;8.942;2023-05-29T12:35:17;8.15;;;3.50;;
69030;SDS011;56083;48.774;8.942;2023-05-29T12:37:54;8.57;;;3.50;;
69030;SDS011;56083;48.774;8.942;2023-05-29T12:42:54;6.38;;;3.47;;
69030;SDS011;56083;48.774;8.942;2023-05-29T12:45:24;7.13;;;3.70;;
69030;SDS011;56083;48.774;8.942;2023-05-29T12:47:56;5.18;;;3.08;;
69030;SDS011;56083;48.774;8.942;2023-05-29T12:50:29;6.60;;;3.55;;
69030;SDS011;56083;48.774;8.942;2023-05-29T12:53:06;6.18;;;3.55;;
69030;SDS011;56083;48.774;8.942;2023-05-29T12:55:34;5.93;;;3.30;;
69030;SDS011;56083;48.774;8.942;2023-05-29T12:58:04;5.28;;;3.42;;
69030;SDS011;56083;48.774;8.942;2023-05-29T13:00:31;7.28;;;3.40;;
69030;SDS011;56083;48.774;8.942;2023-05-29T13:02:58;7.00;;;3.20;;
69030;SDS011;56083;48.774;8.942;2023-05-29T13:05:24;13.25;;;3.03;;
69030;SDS011;56083;48.774;8.942;2023-05-29T13:07:50;7.68;;;3.20;;
69030;SDS011;56083;48.774;8.942;2023-05-29T13:10:16;6.50;;;3.40;;
69030;SDS011;56083;48.774;8.942;2023-05-29T13:12:43;9.57;;;3.10;;
69030;SDS011;56083;48.774;8.942;2023-05-29T13:15:09;4.97;;;2.63;;
69030;SDS011;56083;48.774;8.942;2023-05-29T13:17:37;9.73;;;2.92;;
69030;SDS011;56083;48.774;8.942;2023-05-29T13:20:05;6.95;;;3.20;;
69030;SDS011;56083;48.774;8.942;2023-05-29T13:22:35;7.13;;;3.10;;
69030;SDS011;56083;48.774;8.942;2023-05-29T13:25:02;7.25;;;3.33;;
69030;SDS011;56083;48.774;8.942;2023-05-29T13:27:27;7.43;;;3.00;;
69030;SDS011;56083;48.774;8.942;2023-05-29T13:29:53;6.57;;;2.88;;
69030;SDS011;56083;48.774;8.942;2023-05-29T13:32:19;9.38;;;3.60;;
69030;SDS011;56083;48.774;8.942;2023-05-29T13:34:45;5.88;;;3.50;;
69030;SDS011;56083;48.774;8.942;2023-05-29T13:37:11;5.78;;;3.30;;
69030;SDS011;56083;48.774;8.942;2023-05-29T13:39:36;5.38;;;3.30;;
69030;SDS011;56083;48.774;8.942;2023-05-29T13:42:02;4.97;;;3.30;;
69030;SDS011;56083;48.774;8.942;2023-05-29T13:44:28;6.13;;;3.22;;
69030;SDS011;56083;48.774;8.942;2023-05-29T13:46:54;6.25;;;3.08;;
69030;SDS011;56083;48.774;8.942;2023-05-29T13:49:20;4.57;;;3.00;;
69030;SDS011;56083;48.774;8.942;2023-05-29T13:51:45;6.53;;;3.20;;
69030;SDS011;56083;48.774;8.942;2023-05-29T13:54:12;6.43;;;3.30;;
69030;SDS011;56083;48.774;8.942;2023-05-29T13:56:40;9.13;;;3.50;;
69030;SDS011;56083;48.774;8.942;2023-05-29T13:59:06;5.53;;;3.30;;
69030;SDS011;56083;48.774;8.942;2023-05-29T14:01:32;6.97;;;3.15;;
69030;SDS011;56083;48.774;8.942;2023-05-29T14:03:58;7.35;;;3.13;;
69030;SDS011;56083;48.774;8.942;2023-05-29T14:06:24;9.05;;;3.20;;
69030;SDS011;56083;48.774;8.942;2023-05-29T14:08:50;6.13;;;3.00;;
69030;SDS011;56083;48.774;8.942;2023-05-29T14:11:15;8.10;;;2.80;;
69030;SDS011;56083;48.774;8.942;2023-05-29T14:13:41;7.65;;;3.20;;
69030;SDS011;56083;48.774;8.942;2023-05-29T14:16:06;3.30;;;2.78;;
69030;SDS011;56083;48.774;8.942;2023-05-29T14:18:32;4.45;;;3.03;;
69030;SDS011;56083;48.774;8.942;2023-05-29T14:20:58;5.22;;;3.15;;
69030;SDS011;56083;48.774;8.942;2023-05-29T14:23:24;6.10;;;3.10;;
69030;SDS011;56083;48.774;8.942;2023-05-29T14:25:49;5.10;;;2.85;;
69030;SDS011;56083;48.774;8.942;2023-05-29T14:28:16;4.68;;;2.78;;
69030;SDS011;56083;48.774;8.942;2023-05-29T14:30:42;3.95;;;2.78;;
69030;SDS011;56083;48.774;8.942;2023-05-29T14:33:08;6.60;;;2.63;;
69030;SDS011;56083;48.774;8.942;2023-05-29T14:35:34;7.88;;;3.70;;
69030;SDS011;56083;48.774;8.942;2023-05-29T14:38:00;12.85;;;3.30;;
69030;SDS011;56083;48.774;8.942;2023-05-29T14:40:25;8.38;;;3.20;;
69030;SDS011;56083;48.774;8.942;2023-05-29T14:42:51;5.20;;;3.15;;
69030;SDS011;56083;48.774;8.942;2023-05-29T14:45:16;8.70;;;3.10;;
69030;SDS011;56083;48.774;8.942;2023-05-29T14:47:42;4.05;;;2.92;;
69030;SDS011;56083;48.774;8.942;2023-05-29T14:50:08;5.70;;;3.00;;
69030;SDS011;56083;48.774;8.942;2023-05-29T14:52:34;5.70;;;3.28;;
69030;SDS011;56083;48.774;8.942;2023-05-29T14:55:06;5.43;;;2.90;;
69030;SDS011;56083;48.774;8.942;2023-05-29T14:57:32;4.82;;;3.28;;
69030;SDS011;56083;48.774;8.942;2023-05-29T14:59:59;5.13;;;3.20;;
69030;SDS011;56083;48.774;8.942;2023-05-29T15:02:25;5.35;;;3.30;;
69030;SDS011;56083;48.774;8.942;2023-05-29T15:04:51;5.35;;;3.03;;
69030;SDS011;56083;48.774;8.942;2023-05-29T15:07:17;14.50;;;3.30;;
69030;SDS011;56083;48.774;8.942;2023-05-29T15:09:43;8.43;;;3.33;;
69030;SDS011;56083;48.774;8.942;2023-05-29T15:12:09;4.95;;;2.83;;
69030;SDS011;56083;48.774;8.942;2023-05-29T15:14:35;4.22;;;2.90;;
69030;SDS011;56083;48.774;8.942;2023-05-29T15:17:02;6.93;;;3.40;;
69030;SDS011;56083;48.774;8.942;2023-05-29T15:19:29;7.25;;;2.80;;